Terminal Aerodrome Forecast
Issued by NWS Sioux Falls, SD

Home | Current Version | Previous Version | Text Only | Print | Product List | Glossary On
Versions: 1 2 3 4 5 6 7 8 9 10 11 12 13 14 15 16 17 18 19 20 21 22 23 24 25 26 27 28 29 30 31 32 33 34 35 36 37 38 39
000
FTUS43 KFSD 270600 RRA
TAFSUX
TAF
KSUX 270635Z 2707/2806 07005KT P6SM SCT100
     FM271400 10005KT P6SM SCT015 BKN200
      TEMPO 2714/2717 SCT008 BKN020
     FM280300 12007KT P6SM SCT015 BKN120
      TEMPO 2803/2806 3SM TSRA SCT008 OVC020CB=

USA.gov is the U.S. government's official web portal to all federal, state and local government web resources and services.